Big Bear Station Historical Data
Daily Summary for February 23, 2017 Units:  English    Metric   Both
« Previous Day
Next Day »
Daily Weekly Monthly Yearly Custom
  High: Low: Average:
Temperature: 37.4 °F 18.9 °F 26.1 °F
Dew Point: 20.9 °F -5.7 °F 12.6 °F
Humidity: 93 % 18 % 62 %
Wind Speed: 7.8 mph 0.0 mph 2.7 mph
Wind Gust: -999.0 mph - -
Wind:- - SW
Pressure: 30.01 in 29.93 in -
Precipitation: 0.00 in    
Historical Graphs
 
 
Tabular Data for February 23, 2017
Time Temperature Dew Point Pressure Wind Wind Speed Wind Gust Humidity Rainfall Rate (Hourly)
00:05 22.3 °F 17.4 °F 29.98 in Calm   -999.0 mph 81 % 0 in
00:20 22.5 °F 17.0 °F 29.98 in South 3.7 mph -999.0 mph 79 % 0 in
00:36 22.1 °F 16.9 °F 29.98 in South 1.1 mph -999.0 mph 80 % 0 in
00:51 21.7 °F 16.2 °F 29.97 in WSW 1.1 mph -999.0 mph 79 % 0 in
01:06 21.7 °F 16.2 °F 29.97 in SSW 2.7 mph -999.0 mph 79 % 0 in
01:22 21.6 °F 16.1 °F 29.97 in West 2.7 mph -999.0 mph 79 % 0 in
01:37 21.6 °F 16.4 °F 29.97 in NW 5.3 mph -999.0 mph 80 % 0 in
01:52 21.6 °F 16.7 °F 29.96 in NNW 5.3 mph -999.0 mph 81 % 0 in
02:08 21.4 °F 16.2 °F 29.96 in Calm   -999.0 mph 80 % 0 in
02:23 21.2 °F 16.0 °F 29.95 in ENE 3.2 mph -999.0 mph 80 % 0 in
02:38 21.2 °F 16.0 °F 29.95 in NW 2.2 mph -999.0 mph 80 % 0 in
02:54 21.4 °F 16.8 °F 29.94 in WNW 5.8 mph -999.0 mph 82 % 0 in
03:09 21.4 °F 15.6 °F 29.94 in SW 1.7 mph -999.0 mph 78 % 0 in
03:24 21.7 °F 13.1 °F 29.93 in Calm   -999.0 mph 69 % 0 in
03:39 21.9 °F 12.6 °F 29.93 in NNW 2.2 mph -999.0 mph 67 % 0 in
03:55 22.1 °F 12.8 °F 29.93 in South 2.7 mph -999.0 mph 67 % 0 in
04:10 22.3 °F 9.0 °F 29.93 in West 2.2 mph -999.0 mph 56 % 0 in
04:25 24.4 °F 8.0 °F 29.93 in ESE 3.2 mph -999.0 mph 49 % 0 in
04:40 24.4 °F 14.0 °F 29.93 in SW 1.7 mph -999.0 mph 64 % 0 in
04:55 23.7 °F 11.8 °F 29.93 in SSE 2.2 mph -999.0 mph 60 % 0 in
05:11 22.3 °F 15.0 °F 29.94 in ESE 1.7 mph -999.0 mph 73 % 0 in
05:26 20.8 °F 15.6 °F 29.94 in SSE 2.7 mph -999.0 mph 80 % 0 in
05:41 19.9 °F 15.8 °F 29.94 in SSE 4.2 mph -999.0 mph 84 % 0 in
05:56 19.4 °F 15.6 °F 29.94 in SSE 3.2 mph -999.0 mph 85 % 0 in
06:11 18.9 °F 15.4 °F 29.95 in ESE 2.2 mph -999.0 mph 86 % 0 in
06:27 18.9 °F 15.7 °F 29.96 in ESE 1.7 mph -999.0 mph 87 % 0 in
06:42 19.4 °F 15.9 °F 29.96 in ENE 4.7 mph -999.0 mph 86 % 0 in
06:57 19.4 °F 15.1 °F 29.96 in Calm   -999.0 mph 83 % 0 in
07:12 19.6 °F 14.4 °F 29.97 in ESE 2.2 mph -999.0 mph 80 % 0 in
07:28 19.9 °F 14.4 °F 29.97 in Calm   -999.0 mph 79 % 0 in
07:43 21.4 °F 6.9 °F 29.98 in West 1.1 mph -999.0 mph 53 % 0 in
07:58 22.8 °F 2.1 °F 29.97 in NW 4.2 mph -999.0 mph 40 % 0 in
08:13 24.3 °F 6.0 °F 29.97 in NW 6.8 mph -999.0 mph 45 % 0 in
08:28 25.3 °F 4.3 °F 29.97 in NNE 3.2 mph -999.0 mph 40 % 0 in
08:44 26.2 °F 1.0 °F 29.97 in NW 5.3 mph -999.0 mph 33 % 0 in
08:59 27.0 °F -1.1 °F 29.97 in NNW 5.3 mph -999.0 mph 29 % 0 in
09:15 28.0 °F -0.9 °F 29.97 in SW 2.7 mph -999.0 mph 28 % 0 in
09:30 28.6 °F 2.4 °F 29.97 in NNW 7.8 mph -999.0 mph 32 % 0 in
09:45 29.5 °F 0.4 °F 29.98 in NW 3.7 mph -999.0 mph 28 % 0 in
10:00 30.4 °F -1.3 °F 29.98 in NNW 3.2 mph -999.0 mph 25 % 0 in
10:15 32.0 °F -0.8 °F 29.97 in NNE 3.7 mph -999.0 mph 24 % 0 in
10:31 33.3 °F -5.7 °F 29.98 in North 2.7 mph -999.0 mph 18 % 0 in
10:46 34.7 °F -0.3 °F 29.97 in NNW 5.3 mph -999.0 mph 22 % 0 in
11:01 35.6 °F 2.3 °F 29.97 in WNW 2.2 mph -999.0 mph 24 % 0 in
11:17 35.4 °F 2.1 °F 29.97 in NNW 2.7 mph -999.0 mph 24 % 0 in
11:32 36.9 °F 2.5 °F 29.97 in NW 5.8 mph -999.0 mph 23 % 0 in
11:47 36.5 °F 4.8 °F 29.96 in WNW 2.2 mph -999.0 mph 26 % 0 in
12:02 37.2 °F 3.7 °F 29.96 in WNW 2.2 mph -999.0 mph 24 % 0 in
12:17 37.4 °F 2.9 °F 29.96 in West 2.2 mph -999.0 mph 23 % 0 in
12:33 36.5 °F 4.8 °F 29.96 in ENE 2.2 mph -999.0 mph 26 % 0 in
12:48 37.2 °F 5.4 °F 29.96 in NE 5.3 mph -999.0 mph 26 % 0 in
13:04 36.9 °F 6.0 °F 29.95 in NNE 4.2 mph -999.0 mph 27 % 0 in
13:19 37.2 °F 7.8 °F 29.95 in WNW 5.3 mph -999.0 mph 29 % 0 in
13:34 35.8 °F 10.8 °F 29.95 in NNW 5.8 mph -999.0 mph 35 % 0 in
13:49 35.1 °F 8.2 °F 29.95 in SSW 3.7 mph -999.0 mph 32 % 0 in
14:05 35.2 °F 4.5 °F 29.94 in WNW 4.7 mph -999.0 mph 27 % 0 in
14:20 34.7 °F 8.5 °F 29.95 in ESE 1.7 mph -999.0 mph 33 % 0 in
14:36 35.6 °F 10.0 °F 29.94 in West 3.7 mph -999.0 mph 34 % 0 in
14:51 34.7 °F 8.5 °F 29.95 in North 3.7 mph -999.0 mph 33 % 0 in
15:06 34.7 °F 7.1 °F 29.95 in SSW 5.3 mph -999.0 mph 31 % 0 in
15:21 33.6 °F 6.8 °F 29.95 in NNW 3.2 mph -999.0 mph 32 % 0 in
15:36 32.9 °F 10.0 °F 29.95 in WNW 2.7 mph -999.0 mph 38 % 0 in
15:52 31.8 °F 13.8 °F 29.95 in NNE 1.7 mph -999.0 mph 47 % 0 in
16:07 31.5 °F 15.4 °F 29.96 in NNW 3.7 mph -999.0 mph 51 % 0 in
16:22 30.9 °F 19.0 °F 29.96 in NNE 3.2 mph -999.0 mph 61 % 0 in
16:38 30.2 °F 20.2 °F 29.96 in NW 3.2 mph -999.0 mph 66 % 0 in
16:53 29.1 °F 20.9 °F 29.96 in NNE 3.7 mph -999.0 mph 71 % 0 in
17:09 28.2 °F 20.7 °F 29.97 in North 1.7 mph -999.0 mph 73 % 0 in
17:24 27.1 °F 19.9 °F 29.97 in Calm   -999.0 mph 74 % 0 in
17:39 26.4 °F 19.9 °F 29.97 in Calm   -999.0 mph 76 % 0 in
17:54 25.7 °F 19.8 °F 29.97 in North 2.2 mph -999.0 mph 78 % 0 in
18:09 25.2 °F 19.6 °F 29.97 in Calm   -999.0 mph 79 % 0 in
18:25 24.6 °F 19.0 °F 29.97 in Calm   -999.0 mph 79 % 0 in
18:40 24.1 °F 18.8 °F 29.98 in Calm   -999.0 mph 80 % 0 in
18:56 24.1 °F 19.1 °F 29.97 in WNW 3.2 mph -999.0 mph 81 % 0 in
19:11 23.9 °F 19.5 °F 29.97 in SW 2.2 mph -999.0 mph 83 % 0 in
19:27 23.4 °F 19.8 °F 29.97 in Calm   -999.0 mph 86 % 0 in
19:42 23.0 °F 20.8 °F 29.97 in WSW 2.2 mph -999.0 mph 91 % 0 in
19:57 22.6 °F 20.6 °F 29.98 in WNW 3.2 mph -999.0 mph 92 % 0 in
20:13 22.5 °F 20.8 °F 29.98 in NE 4.7 mph -999.0 mph 93 % 0 in
20:28 22.5 °F 20.8 °F 29.99 in NW 5.8 mph -999.0 mph 93 % 0 in
20:43 22.5 °F 20.8 °F 30.00 in West 3.7 mph -999.0 mph 93 % 0 in
20:58 22.5 °F 20.3 °F 30.00 in NW 3.2 mph -999.0 mph 91 % 0 in
21:13 22.5 °F 19.7 °F 30.00 in ENE 2.7 mph -999.0 mph 89 % 0 in
21:29 22.1 °F 19.4 °F 30.00 in NW 2.2 mph -999.0 mph 89 % 0 in
21:44 21.7 °F 18.4 °F 30.00 in Calm   -999.0 mph 87 % 0 in
22:00 21.7 °F 18.2 °F 30.00 in Calm   -999.0 mph 86 % 0 in
22:15 21.0 °F 17.7 °F 30.00 in ESE 1.7 mph -999.0 mph 87 % 0 in
22:30 21.0 °F 17.5 °F 30.00 in WSW 1.7 mph -999.0 mph 86 % 0 in
22:45 20.7 °F 16.9 °F 30.00 in Calm   -999.0 mph 85 % 0 in
23:00 20.7 °F 16.9 °F 30.01 in Calm   -999.0 mph 85 % 0 in
23:16 20.5 °F 16.4 °F 30.01 in Calm   -999.0 mph 84 % 0 in
23:31 20.1 °F 16.3 °F 30.01 in SSE 2.7 mph -999.0 mph 85 % 0 in
23:46 19.8 °F 16.0 °F 30.01 in SSW 1.7 mph -999.0 mph 85 % 0 in
Big Bear CA Weather
Compliments of Weather Underground - 1.5 mb